Map

Track Data

SID SEASON NUMBER BASIN SUBBASIN NAME ISO_TIME NATURE LAT LON WMO_WIND WMO_PRES WMO_AGENCY TRACK_TYPE DIST2LAND LANDFALL IFLAG USA_AGENCY USA_ATCF_ID USA_LAT USA_LON USA_RECORD USA_STATUS USA_WIND USA_PRES USA_SSHS USA_R34_NE USA_R34_SE USA_R34_SW USA_R34_NW USA_R50_NE USA_R50_SE USA_R50_SW USA_R50_NW USA_R64_NE USA_R64_SE USA_R64_SW USA_R64_NW USA_POCI USA_ROCI USA_RMW USA_EYE TOKYO_LAT TOKYO_LON TOKYO_GRADE TOKYO_WIND TOKYO_PRES TOKYO_R50_DIR TOKYO_R50_LONG TOKYO_R50_SHORT TOKYO_R30_DIR TOKYO_R30_LONG TOKYO_R30_SHORT TOKYO_LAND CMA_LAT CMA_LON CMA_CAT CMA_WIND CMA_PRES HKO_LAT HKO_LON HKO_CAT HKO_WIND HKO_PRES NEWDELHI_LAT NEWDELHI_LON NEWDELHI_GRADE NEWDELHI_WIND NEWDELHI_PRES NEWDELHI_CI NEWDELHI_DP NEWDELHI_POCI REUNION_LAT REUNION_LON REUNION_TYPE REUNION_WIND REUNION_PRES REUNION_TNUM REUNION_CI REUNION_RMW REUNION_R34_NE REUNION_R34_SE REUNION_R34_SW REUNION_R34_NW REUNION_R50_NE REUNION_R50_SE REUNION_R50_SW REUNION_R50_NW REUNION_R64_NE REUNION_R64_SE REUNION_R64_SW REUNION_R64_NW BOM_LAT BOM_LON BOM_TYPE BOM_WIND BOM_PRES BOM_TNUM BOM_CI BOM_RMW BOM_R34_NE BOM_R34_SE BOM_R34_SW BOM_R34_NW BOM_R50_NE BOM_R50_SE BOM_R50_SW BOM_R50_NW BOM_R64_NE BOM_R64_SE BOM_R64_SW BOM_R64_NW BOM_ROCI BOM_POCI BOM_EYE BOM_POS_METHOD BOM_PRES_METHOD NADI_LAT NADI_LON NADI_CAT NADI_WIND NADI_PRES WELLINGTON_LAT WELLINGTON_LON WELLINGTON_WIND WELLINGTON_PRES DS824_LAT DS824_LON DS824_STAGE DS824_WIND DS824_PRES TD9636_LAT TD9636_LON TD9636_STAGE TD9636_WIND TD9636_PRES TD9635_LAT TD9635_LON TD9635_WIND TD9635_PRES TD9635_ROCI NEUMANN_LAT NEUMANN_LON NEUMANN_CLASS NEUMANN_WIND NEUMANN_PRES MLC_LAT MLC_LON MLC_CLASS MLC_WIND MLC_PRES USA_GUST BOM_GUST BOM_GUST_PER REUNION_GUST REUNION_GUST_PER USA_SEAHGT USA_SEARAD_NE USA_SEARAD_SE USA_SEARAD_SW USA_SEARAD_NW STORM_SPEED STORM_DIR
1878253N14324 1878 19 NA NA NOT_NAMED 1878-09-09 12:00:00 TS 14.0000 -35.9000 main 1941 1930 _____________O -1 14.0000 -35.9000 TD 30 11 275
1878253N14324 1878 19 NA NA NOT_NAMED 1878-09-09 15:00:00 TS 14.0502 -36.4500 main 1941 1914 _____________P -1 14.0502 -36.4500 TD 32 11 275
1878253N14324 1878 19 NA NA NOT_NAMED 1878-09-09 18:00:00 TS 14.1000 -37.0000 main 1914 1870 _____________O -1 14.1000 -37.0000 TS 35 11 275
1878253N14324 1878 19 NA NA NOT_NAMED 1878-09-09 21:00:00 TS 14.1499 -37.5500 main 1861 1823 _____________P -1 14.1499 -37.5500 TS 37 11 275
1878253N14324 1878 19 NA NA NOT_NAMED 1878-09-10 00:00:00 TS 14.2000 -38.1000 main 1823 1780 _____________O -1 14.2000 -38.1000 TS 40 11 275
1878253N14324 1878 19 NA NA NOT_NAMED 1878-09-10 03:00:00 TS 14.2499 -38.6500 main 1771 1736 _____________P -1 14.2499 -38.6500 TS 42 11 275
1878253N14324 1878 19 NA NA NOT_NAMED 1878-09-10 06:00:00 TS 14.3000 -39.2000 main 1736 1695 _____________O -1 14.3000 -39.2000 TS 45 11 275
1878253N14324 1878 19 NA NA NOT_NAMED 1878-09-10 09:00:00 TS 14.3499 -39.7500 main 1686 1653 _____________P -1 14.3499 -39.7500 TS 47 11 275
1878253N14324 1878 19 NA NA NOT_NAMED 1878-09-10 12:00:00 TS 14.4000 -40.3000 main 1653 1614 _____________O -1 14.4000 -40.3000 TS 50 11 275
1878253N14324 1878 19 NA NA NOT_NAMED 1878-09-10 15:00:00 TS 14.4499 -40.8500 main 1606 1575 _____________P -1 14.4499 -40.8500 TS 52 11 275
1878253N14324 1878 19 NA NA NOT_NAMED 1878-09-10 18:00:00 TS 14.5000 -41.4000 main 1575 1538 _____________O -1 14.5000 -41.4000 TS 55 11 275
1878253N14324 1878 19 NA NA NOT_NAMED 1878-09-10 21:00:00 TS 14.5499 -41.9500 main 1531 1503 _____________P -1 14.5499 -41.9500 TS 57 11 275
1878253N14324 1878 19 NA NA NOT_NAMED 1878-09-11 00:00:00 TS 14.6000 -42.5000 main 1503 1469 _____________O -1 14.6000 -42.5000 TS 60 11 275
1878253N14324 1878 19 NA NA NOT_NAMED 1878-09-11 03:00:00 TS 14.6499 -43.0500 main 1462 1438 _____________P -1 14.6499 -43.0500 TS 60 11 275
1878253N14324 1878 19 NA NA NOT_NAMED 1878-09-11 06:00:00 TS 14.7000 -43.6000 main 1438 1407 _____________O -1 14.7000 -43.6000 TS 60 11 275
1878253N14324 1878 19 NA NA NOT_NAMED 1878-09-11 09:00:00 TS 14.7499 -44.1500 main 1400 1379 _____________P -1 14.7499 -44.1500 TS 62 11 275
1878253N14324 1878 19 NA NA NOT_NAMED 1878-09-11 12:00:00 TS 14.8000 -44.7000 main 1379 1346 _____________O -1 14.8000 -44.7000 HU 65 11 276
1878253N14324 1878 19 NA NA NOT_NAMED 1878-09-11 15:00:00 TS 14.8574 -45.2500 main 1355 1316 _____________P -1 14.8574 -45.2500 HU 65 11 275
1878253N14324 1878 19 NA NA NOT_NAMED 1878-09-11 18:00:00 TS 14.9000 -45.8000 main 1316 1286 _____________O -1 14.9000 -45.8000 HU 65 11 272
1878253N14324 1878 19 NA NA NOT_NAMED 1878-09-11 21:00:00 TS 14.8999 -46.3501 main 1280 1212 _____________P -1 14.8999 -46.3501 HU 65 9 209
1878253N14324 1878 19 NA NA NOT_NAMED 1878-09-12 00:00:00 TS 14.1000 -46.2667 70 hurdat_atl main 1212 1172 O____________O hurdat_atl AL061878 12.5000 -45.0000 HU 70 1 14.9000 -46.9000 HU 65 11 189
1878253N14324 1878 19 NA NA NOT_NAMED 1878-09-12 03:00:00 TS 13.7976 -46.5361 main 1172 1138 P____________P AL061878 12.6453 -45.6149 HU 70 1 14.9499 -47.4574 HU 65 8 237
1878253N14324 1878 19 NA NA NOT_NAMED 1878-09-12 06:00:00 TS 13.6800 -46.9200 70 hurdat_atl main 1138 1106 O____________O hurdat_atl AL061878 12.8000 -46.2000 HU 70 1 15.0000 -48.0000 HU 65 8 259
1878253N14324 1878 19 NA NA NOT_NAMED 1878-09-12 09:00:00 TS 13.6515 -47.3201 main 1115 1093 P____________P AL061878 12.9774 -46.7301 HU 70 1 14.9998 -48.5001 HU 65 9 278
1878253N14324 1878 19 NA NA NOT_NAMED 1878-09-12 12:00:00 TS 13.8000 -47.8000 70 hurdat_atl main 1097 1092 O____________O hurdat_atl AL061878 13.2000 -47.2000 HU 70 1 15.0000 -49.0000 HU 65 10 291
1878253N14324 1878 19 NA NA NOT_NAMED 1878-09-12 15:00:00 TS 13.9914 -48.2327 main 1097 1092 P____________P AL061878 13.4622 -47.5779 HU 70 1 15.0499 -49.5424 HU 67 10 296
1878253N14324 1878 19 NA NA NOT_NAMED 1878-09-12 18:00:00 TS 14.2333 -48.7000 70 hurdat_atl main 1093 1093 O____________O hurdat_atl AL061878 13.8000 -48.0000 HU 70 1 15.1000 -50.1000 HU 70 11 297
1878253N14324 1878 19 NA NA NOT_NAMED 1878-09-12 21:00:00 TS 14.5083 -49.2868 main 1099 1095 P____________P AL061878 14.2125 -48.6051 HU 70 1 15.0999 -50.6501 HU 70 13 297
1878253N14324 1878 19 NA NA NOT_NAMED 1878-09-13 00:00:00 TS 14.8333 -49.9333 70 hurdat_atl main 1102 1102 O____________O hurdat_atl AL061878 14.7000 -49.3000 HU 70 1 15.1000 -51.2000 HU 70 14 300
1878253N14324 1878 19 NA NA NOT_NAMED 1878-09-13 03:00:00 TS 15.2216 -50.5857 main 1113 1113 P____________P AL061878 15.2574 -49.9999 HU 70 1 15.1499 -51.7574 HU 70 15 301
1878253N14324 1878 19 NA NA NOT_NAMED 1878-09-13 06:00:00 TS 15.6000 -51.2333 70 hurdat_atl main 1134 1131 O____________O hurdat_atl AL061878 15.8000 -50.7000 HU 70 1 15.2000 -52.3000 HU 70 14 299
1878253N14324 1878 19 NA NA NOT_NAMED 1878-09-13 09:00:00 TS 15.8916 -51.8610 main 1144 1109 P____________P AL061878 16.2524 -51.3801 HU 70 1 15.1699 -52.8228 HU 72 13 295
1878253N14324 1878 19 NA NA NOT_NAMED 1878-09-13 12:00:00 TS 16.1333 -52.4333 70 hurdat_atl main 1109 1077 O____________O hurdat_atl AL061878 16.6000 -52.0000 HU 70 1 15.2000 -53.3000 HU 75 11 295
1878253N14324 1878 19 NA NA NOT_NAMED 1878-09-13 15:00:00 TS 16.3673 -52.9351 main 1083 1055 P____________P AL061878 16.8448 -52.5453 HU 70 1 15.4123 -53.7149 HU 75 10 296
1878253N14324 1878 19 NA NA NOT_NAMED 1878-09-13 18:00:00 TS 16.5667 -53.3667 70 hurdat_atl main 1053 1035 O____________O hurdat_atl AL061878 17.0000 -53.0000 HU 70 1 15.7000 -54.1000 HU 75 9 294
1878253N14324 1878 19 NA NA NOT_NAMED 1878-09-13 21:00:00 TS 16.7115 -53.7486 main 1035 1010 P____________P AL061878 17.0923 -53.3728 HU 75 1 15.9499 -54.5001 HU 75 8 293
1878253N14324 1878 19 NA NA NOT_NAMED 1878-09-14 00:00:00 TS 16.8667 -54.1000 80 hurdat_atl main 1018 1002 O____________O hurdat_atl AL061878 17.2000 -53.7000 HU 80 1 16.2000 -54.9000 HU 75 8 300
1878253N14324 1878 19 NA NA NOT_NAMED 1878-09-14 03:00:00 TS 17.1091 -54.4716 main 1002 995 P____________P AL061878 17.4350 -54.0574 HU 80 1 16.4574 -55.3001 HU 75 9 305
1878253N14324 1878 19 NA NA NOT_NAMED 1878-09-14 06:00:00 TS 17.3667 -54.8333 80 hurdat_atl main 1004 990 O____________O hurdat_atl AL061878 17.7000 -54.4000 HU 80 1 16.7000 -55.7000 HU 75 8 304
1878253N14324 1878 19 NA NA NOT_NAMED 1878-09-14 09:00:00 TS 17.5716 -55.1768 main 993 982 P____________P AL061878 17.9149 -54.7001 HU 80 1 16.8851 -56.1301 HU 75 8 302
1878253N14324 1878 19 NA NA NOT_NAMED 1878-09-14 12:00:00 TS 17.7667 -55.5000 80 hurdat_atl main 991 981 O____________O hurdat_atl AL061878 18.1000 -55.0000 HU 80 1 17.1000 -56.5000 HU 75 7 304
1878253N14324 1878 19 NA NA NOT_NAMED 1878-09-14 15:00:00 TS 17.9733 -55.8051 main 990 984 P____________P AL061878 18.2425 -55.3427 HU 80 1 17.4349 -56.7301 HU 77 7 307
1878253N14324 1878 19 NA NA NOT_NAMED 1878-09-14 18:00:00 TS 18.2000 -56.1000 80 hurdat_atl main 991 970 O____________O hurdat_atl AL061878 18.4000 -55.7000 HU 80 1 17.8000 -56.9000 HU 80 8 311
1878253N14324 1878 19 NA NA NOT_NAMED 1878-09-14 21:00:00 TS 18.4641 -56.4000 main 970 938 P____________P AL061878 18.6499 -56.0499 HU 80 1 18.0925 -57.1001 HU 80 8 313
1878253N14324 1878 19 NA NA NOT_NAMED 1878-09-15 00:00:00 TS 18.7333 -56.7000 80 hurdat_atl main 938 907 O____________O hurdat_atl AL061878 18.9000 -56.4000 HU 80 1 18.4000 -57.3000 HU 80 7 311
1878253N14324 1878 19 NA NA NOT_NAMED 1878-09-15 03:00:00 TS 18.9541 -56.9953 main 908 878 P____________P AL061878 19.0274 -56.7429 HU 80 1 18.8075 -57.5000 HU 80 7 309
1878253N14324 1878 19 NA NA NOT_NAMED 1878-09-15 06:00:00 TS 19.2000 -57.3000 80 hurdat_atl main 878 848 O____________O hurdat_atl AL061878 19.2000 -57.1000 HU 80 1 19.2000 -57.7000 HU 80 8 313
1878253N14324 1878 19 NA NA NOT_NAMED 1878-09-15 09:00:00 TS 19.5276 -57.6507 main 839 815 P____________P AL061878 19.5701 -57.5221 HU 85 2 19.4425 -57.9077 HU 82 9 318
1878253N14324 1878 19 NA NA NOT_NAMED 1878-09-15 12:00:00 TS 19.9000 -57.9667 90 hurdat_atl main 815 802 O____________O hurdat_atl AL061878 20.0000 -57.9000 HU 90 2 19.7000 -58.1000 HU 85 9 327
1878253N14324 1878 19 NA NA NOT_NAMED 1878-09-15 15:00:00 TS 20.2807 -58.1727 main 804 800 P____________P AL061878 20.3573 -58.1303 HU 90 2 20.1275 -58.2575 HU 85 8 336
1878253N14324 1878 19 NA NA NOT_NAMED 1878-09-15 18:00:00 TS 20.6667 -58.3333 90 hurdat_atl main 806 794 O____________O hurdat_atl AL061878 20.7000 -58.3000 HU 90 2 20.6000 -58.4000 HU 85 8 337
1878253N14324 1878 19 NA NA NOT_NAMED 1878-09-15 21:00:00 TS 21.0408 -58.5167 main 797 791 P____________P AL061878 21.0575 -58.5001 HU 90 2 21.0075 -58.5501 HU 85 8 335
1878253N14324 1878 19 NA NA NOT_NAMED 1878-09-16 00:00:00 TS 21.4000 -58.7000 90 hurdat_atl main 795 790 O____________O hurdat_atl AL061878 21.4000 -58.7000 HU 90 2 21.4000 -58.7000 HU 85 8 334
1878253N14324 1878 19 NA NA NOT_NAMED 1878-09-16 03:00:00 TS 21.7333 -58.8859 main 791 788 P____________P AL061878 21.7000 -58.9001 HU 90 2 21.8000 -58.8575 HU 85 8 333
1878253N14324 1878 19 NA NA NOT_NAMED 1878-09-16 06:00:00 TS 22.0667 -59.0667 90 hurdat_atl main 794 791 O____________O hurdat_atl AL061878 22.0000 -59.1000 HU 90 2 22.2000 -59.0000 HU 85 8 334
1878253N14324 1878 19 NA NA NOT_NAMED 1878-09-16 09:00:00 TS 22.4158 -59.2385 main 802 800 P____________P AL061878 22.3200 -59.3002 HU 90 2 22.6075 -59.1150 HU 85 8 337
1878253N14324 1878 19 NA NA NOT_NAMED 1878-09-16 12:00:00 TS 22.8000 -59.4000 90 hurdat_atl main 811 809 O____________O hurdat_atl AL061878 22.7000 -59.5000 HU 90 2 23.0000 -59.2000 HU 85 9 340
1878253N14324 1878 19 NA NA NOT_NAMED 1878-09-16 15:00:00 TS 23.2375 -59.5600 main 822 822 P____________P AL061878 23.1775 -59.7075 HU 90 2 23.3575 -59.2650 HU 85 9 343
1878253N14324 1878 19 NA NA NOT_NAMED 1878-09-16 18:00:00 TS 23.7000 -59.7000 90 hurdat_atl main 851 851 O____________O hurdat_atl AL061878 23.7000 -59.9000 HU 90 2 23.7000 -59.3000 HU 85 9 345
1878253N14324 1878 19 NA NA NOT_NAMED 1878-09-16 21:00:00 TS 24.1350 -59.8102 main 875 875 P____________P AL061878 24.1775 -60.0652 HU 85 2 24.0500 -59.3001 HU 82 9 349
1878253N14324 1878 19 NA NA NOT_NAMED 1878-09-17 00:00:00 TS 24.6000 -59.9000 80 hurdat_atl main 909 909 O____________O hurdat_atl AL061878 24.7000 -60.2000 HU 80 1 24.4000 -59.3000 HU 80 10 350
1878253N14324 1878 19 NA NA NOT_NAMED 1878-09-17 03:00:00 TS 25.1475 -60.0032 main 945 945 P____________P AL061878 25.3425 -60.3298 HU 80 1 24.7575 -59.3499 HU 80 11 352
1878253N14324 1878 19 NA NA NOT_NAMED 1878-09-17 06:00:00 TS 25.7000 -60.0667 80 hurdat_atl main 993 993 O____________O hurdat_atl AL061878 26.0000 -60.4000 HU 80 1 25.1000 -59.4000 HU 80 11 358
1878253N14324 1878 19 NA NA NOT_NAMED 1878-09-17 09:00:00 TS 26.2117 -60.0511 main 1039 1039 P____________P AL061878 26.6025 -60.3728 HU 80 1 25.4300 -59.4076 HU 77 9 3
1878253N14324 1878 19 NA NA NOT_NAMED 1878-09-17 12:00:00 TS 26.6333 -60.0000 80 hurdat_atl main 1081 1081 O____________O hurdat_atl AL061878 27.1000 -60.3000 HU 80 1 25.7000 -59.4000 HU 75 7 5
1878253N14324 1878 19 NA NA NOT_NAMED 1878-09-17 15:00:00 TS 26.9108 -59.9691 main 1109 1109 P____________P AL061878 27.4300 -60.2499 HU 80 1 25.8725 -59.4075 HU 75 5 7
1878253N14324 1878 19 NA NA NOT_NAMED 1878-09-17 18:00:00 TS 27.1333 -59.9333 80 hurdat_atl main 1134 1134 O____________O hurdat_atl AL061878 27.7000 -60.2000 HU 80 1 26.0000 -59.4000 HU 75 5 7
1878253N14324 1878 19 NA NA NOT_NAMED 1878-09-17 21:00:00 TS 27.4117 -59.8883 main 1162 1162 P____________P AL061878 28.0425 -60.1574 HU 75 1 26.1500 -59.3500 HU 72 6 9
1878253N14324 1878 19 NA NA NOT_NAMED 1878-09-18 00:00:00 TS 27.7000 -59.8333 70 hurdat_atl main 1196 1196 O____________O hurdat_atl AL061878 28.4000 -60.1000 HU 70 1 26.3000 -59.3000 HU 70 6 10
1878253N14324 1878 19 NA NA NOT_NAMED 1878-09-18 03:00:00 TS 27.9883 -59.7692 main 1225 1225 P____________P AL061878 28.7575 -60.0075 HU 70 1 26.4500 -59.2925 HU 70 6 12
1878253N14324 1878 19 NA NA NOT_NAMED 1878-09-18 06:00:00 TS 28.2667 -59.7000 70 hurdat_atl main 1259 1259 O____________O hurdat_atl AL061878 29.1000 -59.9000 HU 70 1 26.6000 -59.3000 HU 70 5 12
1878253N14324 1878 19 NA NA NOT_NAMED 1878-09-18 09:00:00 TS 28.5141 -59.6382 main 1283 1283 P____________P AL061878 29.4000 -59.8073 HU 70 1 26.7425 -59.3000 HU 70 3 25
1878253N14324 1878 19 NA NA NOT_NAMED 1878-09-18 12:00:00 TS 28.5800 -59.5400 70 hurdat_atl main 1297 1297 O____________O hurdat_atl AL061878 29.7000 -59.7000 HU 70 1 26.9000 -59.3000 HU 70 2 74
1878253N14324 1878 19 NA NA NOT_NAMED 1878-09-18 15:00:00 TS 28.5650 -59.4339 main 1302 1283 P____________P AL061878 30.0376 -59.5603 HU 70 1 27.0925 -59.3075 HU 70 3 144
1878253N14324 1878 19 NA NA NOT_NAMED 1878-09-18 18:00:00 TS 28.3333 -59.3333 70 hurdat_atl main 1279 1203 O____________O hurdat_atl AL061878 30.4000 -59.4000 HU 70 1 27.3000 -59.3000 HU 70 11 171
1878253N14324 1878 19 NA NA NOT_NAMED 1878-09-18 21:00:00 TS 27.5000 -59.2501 main 1203 1203 _____________P AL061878 HU -1 27.5000 -59.2501 HU 70 6 170
1878253N14324 1878 19 NA NA NOT_NAMED 1878-09-19 00:00:00 TS 27.7000 -59.2000 main 1227 1227 _____________O -1 27.7000 -59.2000 HU 70 4 5
1878253N14324 1878 19 NA NA NOT_NAMED 1878-09-19 03:00:00 TS 27.9075 -59.1999 main 1246 1246 _____________P -1 27.9075 -59.1999 HU 70 4 0
1878253N14324 1878 19 NA NA NOT_NAMED 1878-09-19 06:00:00 TS 28.1000 -59.2000 main 1265 1265 _____________O -1 28.1000 -59.2000 HU 70 3 7
1878253N14324 1878 19 NA NA NOT_NAMED 1878-09-19 09:00:00 TS 28.2500 -59.1500 main 1284 1284 _____________P -1 28.2500 -59.1500 HU 70 3 16
1878253N14324 1878 19 NA NA NOT_NAMED 1878-09-19 12:00:00 TS 28.4000 -59.1000 main 1298 1298 _____________O -1 28.4000 -59.1000 HU 70 3 7
1878253N14324 1878 19 NA NA NOT_NAMED 1878-09-19 15:00:00 TS 28.5925 -59.0999 main 1317 1317 _____________P -1 28.5925 -59.0999 HU 70 4 0
1878253N14324 1878 19 NA NA NOT_NAMED 1878-09-19 18:00:00 TS 28.8000 -59.1000 main 1336 1336 _____________O -1 28.8000 -59.1000 HU 70 4 5
1878253N14324 1878 19 NA NA NOT_NAMED 1878-09-19 21:00:00 TS 29.0000 -59.0575 main 1356 1356 _____________P -1 29.0000 -59.0575 HU 70 4 12
1878253N14324 1878 19 NA NA NOT_NAMED 1878-09-20 00:00:00 TS 29.2000 -59.0000 main 1380 1380 _____________O -1 29.2000 -59.0000 HU 70 4 13
1878253N14324 1878 19 NA NA NOT_NAMED 1878-09-20 03:00:00 TS 29.4075 -58.9500 main 1404 1404 _____________P -1 29.4075 -58.9500 HU 70 4 12
1878253N14324 1878 19 NA NA NOT_NAMED 1878-09-20 06:00:00 TS 29.6000 -58.9000 main 1423 1423 _____________O -1 29.6000 -58.9000 HU 70 3 15
1878253N14324 1878 19 NA NA NOT_NAMED 1878-09-20 09:00:00 TS 29.7425 -58.8500 main 1438 1438 _____________P -1 29.7425 -58.8500 HU 70 3 16
1878253N14324 1878 19 NA NA NOT_NAMED 1878-09-20 12:00:00 TS 29.9000 -58.8000 main 1457 1457 _____________O -1 29.9000 -58.8000 HU 70 4 11
1878253N14324 1878 19 NA NA NOT_NAMED 1878-09-20 15:00:00 TS 30.1425 -58.7575 main 1476 1476 _____________P -1 30.1425 -58.7575 HU 70 5 10
1878253N14324 1878 19 NA NA NOT_NAMED 1878-09-20 18:00:00 TS 30.4000 -58.7000 main 1510 1510 _____________O -1 30.4000 -58.7000 HU 70 5 17
1878253N14324 1878 19 NA NA NOT_NAMED 1878-09-20 21:00:00 TS 30.6000 -58.6000 main 1534 1534 _____________P -1 30.6000 -58.6000 HU 70 4 23
1878253N14324 1878 19 NA NA NOT_NAMED 1878-09-21 00:00:00 TS 30.8000 -58.5000 main 1535 1514 _____________O -1 30.8000 -58.5000 HU 70 5 17
1878253N14324 1878 19 NA NA NOT_NAMED 1878-09-21 03:00:00 TS 31.0500 -58.4424 main 1518 1487 _____________P -1 31.0500 -58.4424 HU 70 5 10
1878253N14324 1878 19 NA NA NOT_NAMED 1878-09-21 06:00:00 TS 31.3000 -58.4000 main 1487 1466 _____________O -1 31.3000 -58.4000 HU 70 4 6
1878253N14324 1878 19 NA NA NOT_NAMED 1878-09-21 09:00:00 TS 31.4623 -58.3943 main 1466 1449 _____________P -1 31.4623 -58.3943 HU 70 4 12
1878253N14324 1878 19 NA NA NOT_NAMED 1878-09-21 12:00:00 TS 31.7000 -58.3000 main 1449 1416 _____________O -1 31.7000 -58.3000 HU 70 7 25
1878253N14324 1878 19 NA NA NOT_NAMED 1878-09-21 15:00:00 TS 32.1249 -58.0245 main 1420 1376 _____________P -1 32.1249 -58.0245 HU 70 12 31
1878253N14324 1878 19 NA NA NOT_NAMED 1878-09-21 18:00:00 TS 32.7000 -57.6000 main 1376 1334 _____________O -1 32.7000 -57.6000 HU 70 15 33
1878253N14324 1878 19 NA NA NOT_NAMED 1878-09-21 21:00:00 TS 33.3853 -57.0659 main 1329 1291 _____________P -1 33.3853 -57.0659 HU 67 17 33
1878253N14324 1878 19 NA NA NOT_NAMED 1878-09-22 00:00:00 TS 34.1000 -56.5000 main 1291 1242 _____________O -1 34.1000 -56.5000 HU 65 16 33
1878253N14324 1878 19 NA NA NOT_NAMED 1878-09-22 03:00:00 TS 34.7146 -56.0338 main 1245 1195 _____________P -1 34.7146 -56.0338 HU 65 14 32
1878253N14324 1878 19 NA NA NOT_NAMED 1878-09-22 06:00:00 TS 35.3000 -55.6000 main 1195 1150 _____________O -1 35.3000 -55.6000 HU 65 12 26
1878253N14324 1878 19 NA NA NOT_NAMED 1878-09-22 09:00:00 TS 35.8121 -55.3638 main 1150 1101 _____________P -1 35.8121 -55.3638 HU 65 14 31
1878253N14324 1878 19 NA NA NOT_NAMED 1878-09-22 12:00:00 TS 36.5000 -54.7000 main 1105 1012 _____________O -1 36.5000 -54.7000 HU 65 26 47
1878253N14324 1878 19 NA NA NOT_NAMED 1878-09-22 15:00:00 TS 37.5807 -52.9746 main 1001 896 _____________P -1 37.5807 -52.9746 HU 62 38 53
1878253N14324 1878 19 NA NA NOT_NAMED 1878-09-22 18:00:00 TS 38.8000 -50.8000 main 889 821 _____________O -1 38.8000 -50.8000 TS 60 40 54
1878253N14324 1878 19 NA NA NOT_NAMED 1878-09-22 21:00:00 TS 39.9215 -48.8300 main 824 794 _____________P -1 39.9215 -48.8300 TS 55 36 53
1878253N14324 1878 19 NA NA NOT_NAMED 1878-09-23 00:00:00 TS 41.0000 -47.0000 main 795 788 _____________O -1 41.0000 -47.0000 TS 50 33 51
1878253N14324 1878 19 NA NA NOT_NAMED 1878-09-23 03:00:00 TS 42.0103 -45.4317 main 801 799 _____________P -1 42.0103 -45.4317 TS 45 30 48
1878253N14324 1878 19 NA NA NOT_NAMED 1878-09-23 06:00:00 TS 43.0000 -44.0000 main 821 821 _____________O -1 43.0000 -44.0000 TS 40 29 47
1878253N14324 1878 19 NA NA NOT_NAMED 1878-09-23 09:00:00 TS 44.0003 -42.5323 main 871 871 _____________P -1 44.0003 -42.5323 TS 37 29 47
1878253N14324 1878 19 NA NA NOT_NAMED 1878-09-23 12:00:00 TS 45.0000 -41.0000 main 929 _____________O -1 45.0000 -41.0000 TS 35 30 47

About IBTrACS Database

This database is a web-friendly format of International Best Track Archive for Climate Stewardship (IBTrACS), a global best track data archive curated by NOAA dating back to 1842.

Updated: 2021-12-06